Time;durP1;ratioP1;P1;durP2;ratioP2;P2;SDS_P1;SDS_P2;PMS_P1;PMS_P2;Temp;Humidity;BMP_temperature;BMP_pressure;BME280_temperature;BME280_humidity;BME280_pressure;Samples;Min_cycle;Max_cycle;Signal;HPM_P1;HPM_P2
2022/01/21 00:00:27;;;;;;;38.50;13.90;;;;;;;5.41;51.47;94636.72;5053912;28;20179;-87
2022/01/21 00:02:53;;;;;;;35.87;14.43;;;;;;;5.50;51.32;94643.44;5054291;28;20183;-86
2022/01/21 00:05:21;;;;;;;34.40;13.80;;;;;;;5.57;51.05;94644.31;5055853;28;20241;-87
2022/01/21 00:07:47;;;;;;;41.83;13.40;;;;;;;5.53;51.80;94643.09;5059273;28;20259;-86
2022/01/21 00:10:13;;;;;;;34.43;12.97;;;;;;;5.73;51.26;94685.03;5060394;28;20186;-86
2022/01/21 00:12:38;;;;;;;28.80;11.93;;;;;;;5.26;50.88;94632.34;5062759;28;20189;-86
2022/01/21 00:15:08;;;;;;;24.33;11.23;;;;;;;5.30;50.34;94648.44;5064880;28;20210;-86
2022/01/21 00:17:34;;;;;;;20.37;8.37;;;;;;;5.74;50.92;94720.59;5059067;28;20189;-87
2022/01/21 00:30:59;;;;;;;14.57;4.23;;;;;;;6.41;51.34;94721.09;5035929;28;20230;-87
2022/01/21 00:33:24;;;;;;;6.10;3.10;;;;;;;6.14;51.41;94672.22;5034816;28;20183;-86
2022/01/21 00:35:50;;;;;;;5.03;2.80;;;;;;;6.24;52.28;94696.22;5035177;28;20183;-86
2022/01/21 00:38:16;;;;;;;5.03;2.10;;;;;;;6.47;52.71;94746.50;5061427;28;20190;-86
2022/01/21 00:40:41;;;;;;;6.50;2.83;;;;;;;6.46;52.86;94749.31;5057792;28;20171;-86
2022/01/21 00:43:13;;;;;;;11.63;3.73;;;;;;;6.21;52.60;94722.75;5064857;28;20636;-86
2022/01/21 00:45:39;;;;;;;7.67;2.73;;;;;;;5.98;52.50;94681.09;5058956;28;20252;-86
2022/01/21 00:48:05;;;;;;;10.67;3.40;;;;;;;6.19;54.31;94714.28;5053645;28;20621;-87
2022/01/21 00:50:31;;;;;;;16.30;3.27;;;;;;;6.21;55.16;94713.09;5053595;28;20167;-84
2022/01/21 00:52:57;;;;;;;6.83;3.10;;;;;;;6.27;56.49;94724.59;5054947;28;20171;-85
2022/01/21 00:55:23;;;;;;;6.77;3.20;;;;;;;6.09;60.03;94716.38;5053431;28;20268;-85
2022/01/21 00:57:48;;;;;;;4.83;2.73;;;;;;;6.13;62.28;94722.88;5054583;28;20609;-85
2022/01/21 01:00:14;;;;;;;8.07;3.00;;;;;;;6.37;64.73;94777.38;5055010;28;20192;-85
2022/01/21 01:02:40;;;;;;;5.97;3.30;;;;;;;6.10;66.26;94767.66;5053335;28;20164;-86
2022/01/21 01:05:07;;;;;;;6.83;4.57;;;;;;;6.05;67.41;94786.50;5052416;28;20179;-86
2022/01/21 01:07:33;;;;;;;38.67;36.27;;;;;;;5.70;67.83;94754.13;5053036;28;20231;-87
2022/01/21 01:10:02;;;;;;;10.63;7.63;;;;;;;5.21;69.60;94719.97;5052738;28;20190;-88
2022/01/21 01:12:50;;;;;;;16.10;13.70;;;;;;;5.45;70.32;94758.03;5054844;28;20178;-86
2022/01/21 01:20:52;;;;;;;1024.37;244.23;;;;;;;5.33;71.64;94736.81;5066672;28;20722;-87
2022/01/21 01:28:30;;;;;;;1999.90;999.90;;;;;;;5.22;72.48;94729.41;5054755;28;20216;-87
2022/01/21 01:30:55;;;;;;;1689.70;744.53;;;;;;;5.19;71.81;94724.59;5057794;28;20186;-87
2022/01/21 01:33:24;;;;;;;1999.90;999.90;;;;;;;5.16;71.46;94717.91;5056990;28;20556;-88
2022/01/21 01:35:51;;;;;;;1999.90;999.90;;;;;;;5.07;71.44;94692.09;5060328;28;20203;-86
2022/01/21 01:41:12;;;;;;;732.27;198.80;;;;;;;5.20;71.33;94694.88;5046578;28;20201;-86
2022/01/21 01:51:51;;;;;;;541.23;142.70;;;;;;;5.39;71.47;94733.47;5054042;28;20179;-87
2022/01/21 01:54:19;;;;;;;673.27;173.83;;;;;;;5.44;72.09;94731.13;5052356;28;20211;-86
2022/01/21 01:56:53;;;;;;;527.17;119.50;;;;;;;5.25;73.41;94724.66;5053361;28;20185;-86
2022/01/21 01:59:19;;;;;;;349.63;100.27;;;;;;;5.31;74.33;94734.38;5053420;28;20667;-86
2022/01/21 02:01:56;;;;;;;168.87;27.97;;;;;;;5.28;75.14;94739.13;5051824;28;20210;-86
2022/01/21 02:04:22;;;;;;;386.37;104.07;;;;;;;4.78;76.08;94672.03;5052058;28;20617;-86
2022/01/21 02:06:48;;;;;;;151.00;52.03;;;;;;;4.79;76.73;94686.72;5051917;28;20258;-87
2022/01/21 02:09:14;;;;;;;77.60;27.17;;;;;;;4.60;77.44;94661.16;5053464;28;20195;-86
2022/01/21 02:11:39;;;;;;;65.03;14.80;;;;;;;4.77;78.13;94702.53;5052129;28;20214;-87
2022/01/21 02:14:09;;;;;;;56.63;11.03;;;;;;;4.58;78.57;94679.63;5051845;28;20202;-87
2022/01/21 02:16:42;;;;;;;8.50;5.17;;;;;;;4.72;79.38;94712.69;5058434;28;20171;-87
2022/01/21 02:21:51;;;;;;;7.17;5.00;;;;;;;4.44;79.86;94677.78;5060857;28;20178;-87
2022/01/21 02:24:22;;;;;;;15.30;7.13;;;;;;;4.57;80.18;94711.06;5063146;28;20171;-88
2022/01/21 02:26:50;;;;;;;7.47;4.40;;;;;;;4.73;80.07;94735.16;5071734;28;20171;-87
2022/01/21 02:29:33;;;;;;;9.97;5.57;;;;;;;4.68;80.55;94734.88;5073243;28;20162;-88
2022/01/21 02:32:00;;;;;;;8.70;4.50;;;;;;;4.61;80.57;94733.97;5071847;28;20224;-88
2022/01/21 02:34:26;;;;;;;6.13;3.23;;;;;;;4.49;81.05;94725.78;5073176;28;20205;-89
2022/01/21 02:36:53;;;;;;;11.57;5.23;;;;;;;4.24;80.98;94693.09;5072152;28;20220;-89
2022/01/21 02:39:18;;;;;;;9.03;4.50;;;;;;;4.48;81.16;94742.41;5073490;28;20623;-87
2022/01/21 02:41:44;;;;;;;8.53;4.70;;;;;;;4.34;81.25;94731.94;5063940;28;20265;-87
2022/01/21 02:44:14;;;;;;;4.80;3.90;;;;;;;4.11;81.40;94701.50;5051928;28;20171;-87
2022/01/21 02:46:41;;;;;;;5.93;3.77;;;;;;;4.01;81.61;94695.72;5052033;28;20186;-86
2022/01/21 02:49:08;;;;;;;6.90;3.57;;;;;;;4.11;81.51;94703.31;5053219;28;20155;-87
2022/01/21 02:51:35;;;;;;;8.90;3.97;;;;;;;4.29;82.19;94749.88;5051614;28;20178;-87
2022/01/21 02:54:04;;;;;;;6.70;3.50;;;;;;;3.76;82.75;94702.09;5052708;28;20684;-86
2022/01/21 02:56:37;;;;;;;5.30;3.60;;;;;;;3.83;83.22;94710.00;5053005;28;20163;-87
2022/01/21 02:59:04;;;;;;;5.33;3.67;;;;;;;3.84;83.01;94720.25;5056115;28;20178;-87
2022/01/21 03:01:33;;;;;;;7.60;3.57;;;;;;;3.63;83.39;94691.47;5061687;28;20166;-87
2022/01/21 03:03:58;;;;;;;5.53;3.60;;;;;;;4.02;83.61;94751.22;5057474;28;20163;-87
2022/01/21 03:06:24;;;;;;;8.20;4.77;;;;;;;3.63;83.64;94722.69;5057966;28;20183;-89
2022/01/21 03:08:52;;;;;;;6.70;3.53;;;;;;;3.63;84.21;94725.28;5053974;28;20194;-86
2022/01/21 03:11:19;;;;;;;4.83;3.97;;;;;;;3.56;84.27;94717.34;5052943;28;20161;-87
2022/01/21 03:13:45;;;;;;;5.63;3.67;;;;;;;3.37;84.29;94702.97;5052665;28;20541;-86
2022/01/21 03:16:11;;;;;;;6.07;3.53;;;;;;;3.21;84.88;94726.44;5052272;28;20175;-86
2022/01/21 03:18:37;;;;;;;4.70;3.47;;;;;;;3.23;86.29;94744.47;5051956;28;20178;-87
2022/01/21 03:21:03;;;;;;;4.00;3.23;;;;;;;2.84;86.97;94708.06;5052345;28;20194;-87
2022/01/21 03:23:29;;;;;;;4.73;3.00;;;;;;;2.82;88.47;94734.22;5052623;28;20206;-89
2022/01/21 03:25:55;;;;;;;2.83;2.57;;;;;;;2.80;89.19;94748.34;5050744;28;20231;-88
2022/01/21 03:28:21;;;;;;;2.40;2.20;;;;;;;2.71;89.65;94741.56;5051442;28;20262;-88
2022/01/21 03:30:50;;;;;;;2.37;2.17;;;;;;;2.87;89.32;94757.91;5050339;28;20206;-87
2022/01/21 03:33:16;;;;;;;3.77;2.37;;;;;;;3.11;89.58;94809.06;5050696;28;20257;-87
2022/01/21 03:35:41;;;;;;;1.80;1.70;;;;;;;2.72;89.57;94744.00;5049568;28;20297;-87
2022/01/21 03:38:07;;;;;;;1.60;1.50;;;;;;;2.84;89.56;94753.06;5058603;28;20363;-87
2022/01/21 03:40:33;;;;;;;1.33;1.23;;;;;;;2.79;89.71;94757.94;5056776;28;20182;-87
2022/01/21 03:42:58;;;;;;;1.50;1.40;;;;;;;2.87;88.88;94765.72;5057121;28;20849;-88
2022/01/21 03:45:24;;;;;;;2.93;1.50;;;;;;;2.90;88.72;94782.78;5059395;28;20174;-88
2022/01/21 03:47:49;;;;;;;1.17;1.10;;;;;;;3.16;89.26;94822.38;5059676;28;20309;-88
2022/01/21 03:50:31;;;;;;;1.30;1.20;;;;;;;2.69;89.27;94753.88;5068262;28;20178;-89
2022/01/21 03:52:58;;;;;;;1.50;1.30;;;;;;;2.55;89.26;94726.81;5071068;28;20173;-90
2022/01/21 03:55:24;;;;;;;1.27;1.17;;;;;;;3.21;89.56;94833.06;5071101;28;20222;-89
2022/01/21 03:57:49;;;;;;;1.57;1.47;;;;;;;2.75;89.41;94754.06;5063320;28;20229;-88
2022/01/21 04:00:22;;;;;;;1.30;1.23;;;;;;;3.22;88.82;94824.28;5063825;28;21003;-88
2022/01/21 04:02:49;;;;;;;1.33;0.97;;;;;;;3.29;88.91;94825.25;5063491;28;20243;-88
2022/01/21 04:05:14;;;;;;;1.17;1.10;;;;;;;3.26;88.95;94825.59;5054884;28;20175;-88
2022/01/21 04:07:40;;;;;;;1.30;1.20;;;;;;;2.97;88.75;94775.94;5050157;28;20707;-88
2022/01/21 04:10:06;;;;;;;1.53;1.10;;;;;;;2.84;88.58;94760.88;5051982;28;20190;-88
2022/01/21 04:12:32;;;;;;;2.47;1.20;;;;;;;3.14;89.09;94813.91;5060382;28;20677;-89
2022/01/21 04:14:59;;;;;;;1.70;1.40;;;;;;;3.35;88.49;94839.38;5054392;28;20194;-89
2022/01/21 04:17:25;;;;;;;1.10;1.10;;;;;;;3.07;88.26;94793.94;5062941;28;20178;-90
2022/01/21 04:19:51;;;;;;;1.50;1.40;;;;;;;2.95;88.19;94783.06;5054779;28;20186;-89
2022/01/21 04:22:16;;;;;;;1.30;1.20;;;;;;;2.63;88.30;94755.38;5052785;28;20183;-89
2022/01/21 04:24:44;;;;;;;2.70;1.40;;;;;;;2.86;88.75;94805.66;5057238;28;20255;-89
2022/01/21 04:27:10;;;;;;;1.77;1.67;;;;;;;3.12;89.19;94856.66;5058473;28;20868;-89
2022/01/21 04:29:36;;;;;;;2.10;1.60;;;;;;;2.83;89.39;94820.81;5064812;28;20174;-88
2022/01/21 04:32:02;;;;;;;1.90;1.63;;;;;;;2.76;89.37;94793.84;5049702;28;20715;-89
2022/01/21 04:34:27;;;;;;;1.30;1.20;;;;;;;3.06;89.06;94862.53;5051838;28;20191;-89
2022/01/21 04:36:53;;;;;;;1.30;1.20;;;;;;;2.14;89.38;94742.44;5051281;28;20228;-88
2022/01/21 04:39:25;;;;;;;2.57;1.10;;;;;;;2.86;89.69;94859.44;5050750;28;20175;-90
2022/01/21 04:47:17;;;;;;;1.17;1.10;;;;;;;2.82;90.01;94855.56;5063050;28;20185;-91
2022/01/21 04:49:43;;;;;;;1.70;1.60;;;;;;;2.77;90.34;94848.25;5053726;28;20175;-90
2022/01/21 04:52:09;;;;;;;1.67;1.33;;;;;;;2.94;89.55;94888.06;5063163;28;20248;-91
2022/01/21 04:54:36;;;;;;;1.93;1.47;;;;;;;2.87;90.38;94892.25;5073924;28;20236;-89
2022/01/21 04:57:04;;;;;;;1.30;1.20;;;;;;;2.52;89.92;94844.03;5073100;28;20189;-85
2022/01/21 04:59:30;;;;;;;2.07;1.40;;;;;;;2.53;90.56;94853.44;5073232;28;20193;-88
2022/01/21 05:01:56;;;;;;;1.37;1.30;;;;;;;2.95;90.90;94910.47;5063094;28;20175;-87
2022/01/21 05:04:22;;;;;;;1.40;1.30;;;;;;;2.83;90.58;94891.78;5062076;28;20167;-87
2022/01/21 05:06:49;;;;;;;2.13;1.40;;;;;;;2.79;89.74;94889.66;5064654;28;20692;-87
2022/01/21 05:09:16;;;;;;;1.40;1.30;;;;;;;2.40;89.50;94853.94;5067159;28;20182;-86
2022/01/21 05:11:46;;;;;;;1.27;1.17;;;;;;;2.76;89.71;94906.41;5061137;28;20196;-86
2022/01/21 05:14:24;;;;;;;2.97;1.83;;;;;;;2.28;89.27;94845.63;5066416;28;20199;-86
2022/01/21 05:16:52;;;;;;;3.63;2.47;;;;;;;2.21;90.42;94834.28;5064880;28;20182;-86
2022/01/21 05:19:19;;;;;;;2.60;1.80;;;;;;;2.83;90.09;94914.38;5069862;28;20186;-84
2022/01/21 05:21:48;;;;;;;8.27;2.00;;;;;;;2.75;90.03;94920.38;5068135;28;20182;-87
2022/01/21 05:24:16;;;;;;;2.40;1.90;;;;;;;2.63;90.08;94893.88;5071945;28;20193;-87
2022/01/21 05:26:52;;;;;;;3.10;1.87;;;;;;;2.87;89.46;94934.66;5075352;28;20236;-87
2022/01/21 05:29:18;;;;;;;2.60;1.90;;;;;;;2.43;88.28;94874.38;5076599;28;20154;-88
2022/01/21 05:31:43;;;;;;;3.17;2.00;;;;;;;2.75;87.78;94930.78;5072352;28;20216;-88
2022/01/21 05:34:08;;;;;;;4.53;1.70;;;;;;;2.07;88.28;94847.06;5074098;28;20652;-88
2022/01/21 05:36:37;;;;;;;2.60;1.80;;;;;;;2.40;87.30;94928.44;5065956;28;20328;-89
2022/01/21 05:39:03;;;;;;;4.23;1.70;;;;;;;2.50;87.58;94965.50;5068695;28;20236;-86
2022/01/21 05:41:29;;;;;;;3.57;1.87;;;;;;;2.45;88.68;94965.94;5056977;28;20557;-88
2022/01/21 05:44:02;;;;;;;1.60;1.50;;;;;;;2.38;88.92;94959.75;5059948;28;20182;-86
2022/01/21 05:49:05;;;;;;;2.83;1.70;;;;;;;2.19;88.69;94934.06;5065316;28;20174;-91
2022/01/21 05:51:30;;;;;;;2.20;1.83;;;;;;;2.45;88.37;94975.53;5062267;28;20233;-89
2022/01/21 05:53:56;;;;;;;1.90;1.80;;;;;;;2.20;88.45;94935.69;5059556;28;20194;-87
2022/01/21 05:56:24;;;;;;;3.30;1.57;;;;;;;2.04;88.00;94922.66;5060448;28;20198;-88
2022/01/21 05:58:50;;;;;;;2.87;1.43;;;;;;;2.32;87.86;94959.59;5068619;28;20190;-90
2022/01/21 06:01:16;;;;;;;3.20;1.90;;;;;;;2.07;86.59;94936.16;5061963;28;20175;-91
2022/01/21 06:03:41;;;;;;;4.43;2.47;;;;;;;1.86;86.39;94927.94;5061134;28;20187;-91
2022/01/21 06:06:08;;;;;;;7.27;3.00;;;;;;;2.02;86.91;94968.72;5058206;28;20715;-89
2022/01/21 06:08:34;;;;;;;2.57;1.70;;;;;;;1.89;87.61;94936.22;5058533;28;20222;-88
2022/01/21 06:11:00;;;;;;;1.80;1.70;;;;;;;2.24;88.18;94997.53;5058021;28;20572;-89
2022/01/21 06:13:25;;;;;;;2.43;1.63;;;;;;;1.99;87.28;94967.22;5067739;28;20190;-88
2022/01/21 06:15:51;;;;;;;4.10;2.10;;;;;;;1.84;87.26;94948.84;5066538;28;20203;-90
2022/01/21 06:18:16;;;;;;;3.73;2.37;;;;;;;1.57;87.49;94904.94;5068454;28;20168;-87
2022/01/21 06:20:42;;;;;;;7.30;3.70;;;;;;;2.42;87.96;95043.38;5059524;28;20174;-90
2022/01/21 06:23:08;;;;;;;3.77;2.30;;;;;;;1.74;87.92;94942.94;5059205;28;20187;-88
2022/01/21 06:25:33;;;;;;;3.67;2.30;;;;;;;2.06;87.71;94996.00;5061733;28;20767;-88
2022/01/21 06:27:59;;;;;;;6.40;2.97;;;;;;;2.08;87.01;94994.84;5058671;28;20262;-87
2022/01/21 06:30:24;;;;;;;8.20;3.43;;;;;;;1.92;86.53;94983.59;5062312;28;20179;-87
2022/01/21 06:32:50;;;;;;;6.27;3.60;;;;;;;2.02;86.68;95005.06;5057944;28;20227;-88
2022/01/21 06:35:16;;;;;;;7.33;3.80;;;;;;;1.57;85.62;94948.22;5059068;28;20194;-89
2022/01/21 06:37:42;;;;;;;6.37;3.23;;;;;;;2.29;84.92;95069.78;5062928;28;20166;-88
2022/01/21 06:40:09;;;;;;;4.90;2.80;;;;;;;1.84;84.30;95015.50;5058653;28;20553;-89
2022/01/21 06:42:36;;;;;;;6.80;3.97;;;;;;;2.14;83.78;95077.34;5056299;28;20187;-90
2022/01/21 06:45:03;;;;;;;6.30;3.13;;;;;;;2.22;84.06;95079.16;5056380;28;20174;-86
2022/01/21 06:47:29;;;;;;;9.33;3.67;;;;;;;1.38;83.66;94954.44;5063978;28;20171;-88
2022/01/21 06:49:59;;;;;;;8.17;3.87;;;;;;;0.99;82.44;94887.41;5062254;28;20185;-89
2022/01/21 06:52:29;;;;;;;9.27;5.30;;;;;;;2.02;82.89;95065.56;5059764;28;20556;-87
2022/01/21 06:54:56;;;;;;;9.30;5.17;;;;;;;2.18;82.52;95096.00;5059907;28;20997;-87
2022/01/21 06:57:22;;;;;;;15.03;6.47;;;;;;;1.82;83.07;95064.13;5061471;28;20632;-88
2022/01/21 06:59:48;;;;;;;18.10;7.93;;;;;;;1.47;81.87;95046.88;5061692;28;20286;-86
2022/01/21 07:02:14;;;;;;;19.90;11.10;;;;;;;1.82;82.95;95095.28;5062663;28;20245;-87
2022/01/21 07:04:40;;;;;;;21.40;9.87;;;;;;;1.55;83.15;95067.69;5058361;28;20186;-88
2022/01/21 07:07:06;;;;;;;19.13;7.87;;;;;;;1.60;82.74;95070.63;5059478;28;20218;-88
2022/01/21 07:09:31;;;;;;;20.10;9.43;;;;;;;1.48;82.20;95069.25;5059130;28;20186;-89
2022/01/21 07:11:57;;;;;;;21.40;8.73;;;;;;;1.53;83.95;95074.81;5054937;28;20210;-89
2022/01/21 07:14:23;;;;;;;20.33;10.13;;;;;;;1.61;83.26;95081.84;5064522;28;20224;-90
2022/01/21 07:16:49;;;;;;;20.40;9.87;;;;;;;1.21;82.50;95023.47;5055882;28;20628;-89
2022/01/21 07:19:15;;;;;;;17.97;9.70;;;;;;;2.00;82.65;95153.16;5066524;28;20255;-86
2022/01/21 07:21:41;;;;;;;15.93;8.67;;;;;;;1.24;82.89;95066.44;5054487;28;20648;-88
2022/01/21 07:24:07;;;;;;;15.80;8.37;;;;;;;1.40;83.60;95097.69;5061057;28;20264;-87
2022/01/21 07:26:33;;;;;;;13.10;7.93;;;;;;;1.31;84.88;95088.22;5062732;28;20177;-87
2022/01/21 07:28:58;;;;;;;15.90;8.53;;;;;;;1.75;85.41;95141.78;5058874;28;20179;-88
2022/01/21 07:31:25;;;;;;;17.43;8.20;;;;;;;1.57;84.59;95099.47;5056337;28;20158;-87
2022/01/21 07:33:50;;;;;;;15.17;6.93;;;;;;;1.46;84.07;95086.75;5062427;28;20185;-89
2022/01/21 07:36:16;;;;;;;16.47;6.20;;;;;;;1.51;83.99;95093.09;5065186;28;20563;-87
2022/01/21 07:38:41;;;;;;;15.77;6.70;;;;;;;1.81;83.06;95151.56;5063496;28;20686;-89
2022/01/21 07:41:07;;;;;;;12.27;6.67;;;;;;;1.87;83.82;95191.69;5059065;28;20704;-89
2022/01/21 07:43:33;;;;;;;11.47;4.90;;;;;;;1.92;83.85;95179.06;5058318;28;20170;-89
2022/01/21 07:45:58;;;;;;;8.50;4.93;;;;;;;1.60;84.73;95125.13;5062519;28;20186;-90
2022/01/21 07:48:24;;;;;;;14.97;7.83;;;;;;;1.43;83.84;95090.44;5063128;28;20270;-87
2022/01/21 07:50:50;;;;;;;14.00;8.17;;;;;;;1.74;83.08;95134.13;5058785;28;20636;-88
2022/01/21 07:53:15;;;;;;;12.97;7.17;;;;;;;1.81;82.93;95146.38;5057770;28;20186;-88
2022/01/21 07:55:43;;;;;;;17.90;8.87;;;;;;;1.80;82.65;95139.56;5060710;28;20198;-87
2022/01/21 07:58:08;;;;;;;19.10;8.83;;;;;;;1.80;82.07;95138.75;5057797;28;20172;-89
2022/01/21 08:00:34;;;;;;;19.53;11.20;;;;;;;1.70;81.78;95119.84;5066760;28;20178;-88
2022/01/21 08:02:59;;;;;;;24.63;11.93;;;;;;;1.62;82.10;95128.38;5063267;28;20206;-87
2022/01/21 08:05:30;;;;;;;25.03;15.13;;;;;;;1.59;82.53;95120.88;5060337;28;20167;-90
2022/01/21 08:07:55;;;;;;;30.77;15.20;;;;;;;1.81;82.23;95148.16;5057921;28;20232;-90
2022/01/21 08:10:21;;;;;;;32.77;15.87;;;;;;;1.82;81.28;95135.00;5063168;28;20174;-90
2022/01/21 08:12:46;;;;;;;26.23;11.13;;;;;;;2.03;80.75;95193.59;5062827;28;20183;-88
2022/01/21 08:15:12;;;;;;;27.37;11.77;;;;;;;1.92;80.64;95160.06;5063073;28;20201;-91
2022/01/21 08:17:37;;;;;;;22.30;11.33;;;;;;;2.18;80.74;95218.03;5065936;28;20197;-89
2022/01/21 08:20:03;;;;;;;28.07;11.40;;;;;;;1.99;80.20;95200.84;5066952;28;20178;-89
2022/01/21 08:22:29;;;;;;;22.23;10.87;;;;;;;1.36;81.19;95130.91;5059779;28;20174;-89
2022/01/21 08:24:54;;;;;;;22.37;11.90;;;;;;;1.58;81.23;95168.53;5066290;28;20376;-89
2022/01/21 08:27:20;;;;;;;17.20;9.40;;;;;;;2.02;81.38;95223.09;5060692;28;20174;-89
2022/01/21 08:29:46;;;;;;;22.47;10.47;;;;;;;1.90;81.12;95210.34;5056203;28;20191;-89
2022/01/21 08:32:12;;;;;;;27.47;13.60;;;;;;;1.41;79.94;95144.22;5056445;28;20163;-88
2022/01/21 08:34:38;;;;;;;22.67;12.20;;;;;;;1.80;80.82;95239.94;5057873;28;20201;-88
2022/01/21 08:37:04;;;;;;;26.23;13.83;;;;;;;1.63;81.28;95199.25;5064467;28;20179;-89
2022/01/21 08:39:30;;;;;;;26.60;12.10;;;;;;;1.25;80.99;95123.34;5059362;28;20182;-88
2022/01/21 08:41:55;;;;;;;33.53;14.97;;;;;;;1.54;80.87;95161.22;5065701;28;20179;-89
2022/01/21 08:44:21;;;;;;;29.77;14.93;;;;;;;1.60;81.85;95145.06;5060523;28;20171;-89
2022/01/21 08:46:47;;;;;;;21.23;11.77;;;;;;;1.46;81.75;95090.16;5068718;28;20166;-88
2022/01/21 08:49:12;;;;;;;13.27;7.50;;;;;;;1.42;80.44;95103.56;5059667;28;20638;-87
2022/01/21 08:51:57;;;;;;;13.73;7.33;;;;;;;1.83;80.49;95151.41;5062628;28;20190;-89
2022/01/21 08:54:24;;;;;;;25.07;11.00;;;;;;;2.23;79.29;95208.03;5064400;28;20199;-87
2022/01/21 08:56:52;;;;;;;24.70;11.50;;;;;;;2.03;79.54;95199.59;5058297;28;20233;-89
2022/01/21 08:59:18;;;;;;;31.00;18.83;;;;;;;2.00;78.62;95194.69;5066877;28;20183;-89
2022/01/21 09:01:45;;;;;;;37.17;20.40;;;;;;;1.60;78.34;95161.44;5065389;28;20179;-89
2022/01/21 09:04:10;;;;;;;28.97;16.50;;;;;;;1.71;79.35;95179.38;5059717;28;20183;-88
2022/01/21 09:06:36;;;;;;;26.07;14.87;;;;;;;1.87;80.04;95194.28;5064387;28;20182;-91
2022/01/21 09:09:02;;;;;;;29.23;14.93;;;;;;;1.41;79.42;95105.34;5062386;28;20174;-90
2022/01/21 09:11:27;;;;;;;27.57;13.60;;;;;;;1.99;79.53;95202.66;5066142;28;20170;-89
2022/01/21 09:13:53;;;;;;;24.13;13.57;;;;;;;1.63;79.24;95134.38;5066039;28;20171;-91
2022/01/21 09:16:20;;;;;;;27.87;15.17;;;;;;;1.75;80.15;95151.34;5058338;28;20236;-89
2022/01/21 09:18:49;;;;;;;28.87;15.03;;;;;;;2.10;79.30;95216.19;5063633;28;20174;-90
2022/01/21 09:21:17;;;;;;;33.00;17.20;;;;;;;2.04;79.43;95192.63;5059592;28;20197;-91
2022/01/21 09:23:43;;;;;;;25.80;13.27;;;;;;;2.12;78.93;95196.09;5064922;28;20167;-89
2022/01/21 09:26:09;;;;;;;18.63;9.70;;;;;;;2.01;79.14;95198.09;5061327;28;20179;-87
2022/01/21 09:28:35;;;;;;;24.10;13.47;;;;;;;1.57;78.80;95091.69;5062157;28;20186;-90
2022/01/21 09:31:01;;;;;;;62.73;28.77;;;;;;;2.24;78.99;95175.91;5062317;28;20174;-91
2022/01/21 09:33:26;;;;;;;37.13;18.20;;;;;;;2.49;77.76;95179.47;5063286;28;20205;-89
2022/01/21 09:35:52;;;;;;;29.77;16.17;;;;;;;2.17;76.55;95107.34;5060597;28;20683;-90
2022/01/21 09:38:19;;;;;;;34.97;17.27;;;;;;;2.24;76.16;95104.00;5059863;28;20179;-89
2022/01/21 09:40:51;;;;;;;49.67;21.13;;;;;;;2.71;76.49;95154.72;5068159;28;20171;-88
2022/01/21 09:43:17;;;;;;;34.87;18.13;;;;;;;2.86;76.90;95166.16;5060765;28;20166;-91
2022/01/21 09:45:47;;;;;;;24.70;13.07;;;;;;;2.81;75.68;95122.47;5058986;28;20178;-93
2022/01/21 09:48:21;;;;;;;30.57;13.73;;;;;;;3.36;75.27;95187.81;5064764;28;20612;-90
2022/01/21 09:50:47;;;;;;;60.57;19.13;;;;;;;3.39;73.55;95190.09;5067405;28;20642;-93
2022/01/21 09:53:14;;;;;;;53.33;17.87;;;;;;;3.17;74.55;95117.06;5058458;28;20174;-92
2022/01/21 09:55:40;;;;;;;21.17;11.00;;;;;;;3.27;72.76;95115.94;5055471;28;20311;-92
2022/01/21 09:58:08;;;;;;;31.90;14.07;;;;;;;3.09;70.73;95115.25;5058926;28;20230;-88
2022/01/21 10:00:34;;;;;;;37.10;17.00;;;;;;;3.03;71.07;95080.28;5057294;28;20583;-90
2022/01/21 10:03:03;;;;;;;32.83;14.03;;;;;;;3.14;71.00;95094.75;5055392;28;20191;-88
2022/01/21 10:05:30;;;;;;;33.47;14.77;;;;;;;3.50;71.37;95136.13;5068743;28;20181;-85
2022/01/21 10:07:59;;;;;;;40.10;22.57;;;;;;;3.80;70.50;95166.75;5058844;28;20590;-86
2022/01/21 10:10:24;;;;;;;38.63;20.63;;;;;;;3.47;70.00;95107.81;5065273;28;20586;-87
2022/01/21 10:12:50;;;;;;;17.77;10.10;;;;;;;3.76;70.90;95150.63;5064234;28;20182;-88
2022/01/21 10:15:17;;;;;;;8.00;5.30;;;;;;;3.29;69.60;95090.56;5061321;28;20191;-88
2022/01/21 10:17:59;;;;;;;13.80;7.43;;;;;;;3.51;69.74;95158.56;5057297;28;20189;-86
2022/01/21 10:20:24;;;;;;;22.23;9.50;;;;;;;3.32;69.84;95118.06;5053051;28;20183;-86
2022/01/21 10:23:08;;;;;;;27.77;10.90;;;;;;;3.67;70.43;95153.41;5061078;28;20182;-91
2022/01/21 10:25:36;;;;;;;26.60;13.47;;;;;;;3.81;69.28;95152.75;5060744;28;20640;-86
2022/01/21 10:28:17;;;;;;;20.17;10.70;;;;;;;3.44;69.56;95102.94;5060207;28;20613;-87
2022/01/21 10:30:44;;;;;;;17.77;8.43;;;;;;;3.41;69.71;95104.91;5059334;28;20170;-88
2022/01/21 10:33:26;;;;;;;33.87;13.17;;;;;;;3.49;69.31;95092.88;5063184;28;20187;-89
2022/01/21 10:36:21;;;;;;;22.47;10.37;;;;;;;3.59;69.50;95101.34;5064755;28;20187;-89
2022/01/21 10:38:50;;;;;;;17.70;7.53;;;;;;;3.54;69.37;95088.00;5059051;28;20258;-88
2022/01/21 10:41:18;;;;;;;15.87;8.33;;;;;;;4.01;70.26;95137.63;5057078;28;20210;-90
2022/01/21 10:43:47;;;;;;;17.80;9.07;;;;;;;3.85;68.74;95082.94;5069086;28;20162;-92
2022/01/21 10:46:16;;;;;;;29.40;12.53;;;;;;;3.88;66.94;95064.41;5058707;28;20163;-89
2022/01/21 10:49:00;;;;;;;25.10;9.63;;;;;;;4.40;67.45;95135.97;5065599;28;20639;-88
2022/01/21 10:51:29;;;;;;;35.30;14.33;;;;;;;4.43;68.07;95122.59;5059326;28;20170;-88
2022/01/21 10:53:58;;;;;;;17.47;9.20;;;;;;;4.13;66.34;95066.00;5053284;28;20205;-88
2022/01/21 10:56:26;;;;;;;35.30;14.83;;;;;;;4.37;66.07;95122.44;5059670;28;20205;-89
2022/01/21 10:58:54;;;;;;;28.00;13.00;;;;;;;4.37;67.61;95122.44;5063075;28;20248;-89
2022/01/21 11:01:24;;;;;;;15.67;9.70;;;;;;;4.04;68.22;95057.38;5052364;28;20182;-86
2022/01/21 11:04:05;;;;;;;22.17;10.43;;;;;;;4.50;68.27;95118.31;5055257;28;20182;-89
2022/01/21 11:06:47;;;;;;;22.40;12.00;;;;;;;4.65;68.59;95117.66;5061676;28;20666;-89
2022/01/21 11:09:19;;;;;;;18.40;10.03;;;;;;;4.80;67.29;95113.34;5052752;28;20237;-89
2022/01/21 11:11:47;;;;;;;28.00;13.60;;;;;;;4.83;67.00;95115.63;5055681;28;20185;-88
2022/01/21 11:14:16;;;;;;;19.27;10.17;;;;;;;4.86;66.84;95103.06;5062290;28;20675;-90
2022/01/21 11:16:45;;;;;;;27.90;11.43;;;;;;;4.80;66.10;95101.13;5040178;28;20194;-89
2022/01/21 11:19:14;;;;;;;23.87;11.17;;;;;;;4.35;64.27;95049.63;5065015;28;20269;-88
2022/01/21 11:21:42;;;;;;;23.57;10.90;;;;;;;4.81;66.23;95107.97;5058158;28;20178;-88
2022/01/21 11:24:09;;;;;;;16.70;7.93;;;;;;;4.39;65.88;95057.94;5062393;28;20167;-88
2022/01/21 11:26:35;;;;;;;32.23;12.43;;;;;;;4.31;64.82;95045.75;5059786;28;20257;-89
2022/01/21 11:29:03;;;;;;;24.23;11.40;;;;;;;4.78;64.45;95108.31;5061319;28;20754;-89
2022/01/21 11:31:29;;;;;;;27.17;10.70;;;;;;;4.60;64.65;95057.38;5064759;28;20178;-89
2022/01/21 11:33:55;;;;;;;16.80;8.43;;;;;;;4.37;63.22;95076.34;5060478;28;20697;-90
2022/01/21 11:36:21;;;;;;;14.60;7.77;;;;;;;4.29;65.85;95065.13;5060426;28;20202;-91
2022/01/21 11:38:48;;;;;;;23.50;10.87;;;;;;;4.18;66.37;95020.22;5059401;28;20186;-91
2022/01/21 11:41:15;;;;;;;17.30;8.33;;;;;;;4.19;64.18;95023.63;5060477;28;20167;-90
2022/01/21 11:43:49;;;;;;;14.57;7.37;;;;;;;4.26;63.84;95055.84;5062314;28;20179;-88
2022/01/21 11:49:00;;;;;;;15.77;8.27;;;;;;;4.11;65.26;95060.94;5061963;28;20242;-90
2022/01/21 11:51:32;;;;;;;15.83;7.77;;;;;;;4.31;63.90;95120.50;5069986;28;20546;-89
2022/01/21 11:54:05;;;;;;;14.30;7.40;;;;;;;4.30;64.85;95121.47;5056618;28;20187;-90
2022/01/21 11:56:42;;;;;;;16.17;7.33;;;;;;;4.29;65.14;95117.25;5056182;28;20747;-90
2022/01/21 11:59:08;;;;;;;17.83;7.63;;;;;;;4.23;64.32;95110.91;5059411;28;20213;-90
2022/01/21 12:01:41;;;;;;;14.63;6.97;;;;;;;4.17;65.38;95101.94;5053366;28;20228;-90
2022/01/21 12:04:07;;;;;;;11.67;6.97;;;;;;;3.85;65.55;95044.72;5052508;28;20191;-90
2022/01/21 12:06:34;;;;;;;16.00;7.53;;;;;;;4.11;65.44;95115.63;5056204;28;20248;-90
2022/01/21 12:09:05;;;;;;;16.57;8.20;;;;;;;3.67;65.36;95057.09;5055678;28;20281;-88
2022/01/21 12:11:37;;;;;;;18.23;8.83;;;;;;;3.95;66.40;95107.03;5063047;28;20179;-91
2022/01/21 12:14:25;;;;;;;17.33;7.40;;;;;;;3.83;66.23;95111.75;5062050;28;20183;-90
2022/01/21 12:17:10;;;;;;;14.67;8.03;;;;;;;3.37;66.62;95035.94;5055697;28;20179;-91
2022/01/21 12:19:38;;;;;;;17.17;9.27;;;;;;;3.47;66.75;95055.78;5056433;28;20723;-91
2022/01/21 12:22:18;;;;;;;18.63;8.50;;;;;;;3.72;67.34;95094.66;5059050;28;20265;-92